Time;durP1;ratioP1;P1;durP2;ratioP2;P2;SDS_P1;SDS_P2;PMS_P1;PMS_P2;Temp;Humidity;BMP_temperature;BMP_pressure;BME280_temperature;BME280_humidity;BME280_pressure;Samples;Min_cycle;Max_cycle;Signal;HPM_P1;HPM_P2
2022/07/30 00:01:37;;;;;;;7.38;3.72;;;;;;;20.83;58.11;100359.41;4994541;28;20054;-62
2022/07/30 00:04:05;;;;;;;5.50;3.92;;;;;;;20.78;58.24;100356.94;4991549;28;20065;-61
2022/07/30 00:06:36;;;;;;;6.25;3.72;;;;;;;20.61;58.76;100349.88;4994464;28;20130;-61
2022/07/30 00:09:04;;;;;;;5.50;3.40;;;;;;;20.56;59.18;100348.19;4993993;28;20058;-61
2022/07/30 00:11:31;;;;;;;6.38;3.47;;;;;;;20.50;59.29;100348.91;4985349;28;20062;-61
2022/07/30 00:13:58;;;;;;;4.50;3.65;;;;;;;20.39;59.51;100354.41;4975525;28;20608;-61
2022/07/30 00:16:26;;;;;;;5.28;3.85;;;;;;;20.31;59.64;100350.69;4991460;28;20054;-61
2022/07/30 00:18:53;;;;;;;4.47;3.38;;;;;;;20.27;59.85;100344.97;4994350;28;20058;-61
2022/07/30 00:21:21;;;;;;;5.03;3.42;;;;;;;20.21;59.59;100346.50;4994249;28;20054;-61
2022/07/30 00:23:51;;;;;;;4.97;3.38;;;;;;;20.10;59.82;100344.75;4994072;28;20050;-61
2022/07/30 00:26:21;;;;;;;6.47;3.60;;;;;;;19.99;60.44;100334.09;4976979;28;20061;-61
2022/07/30 00:28:49;;;;;;;6.55;3.45;;;;;;;19.90;60.83;100338.38;4974561;28;20415;-61
2022/07/30 00:31:16;;;;;;;6.18;3.78;;;;;;;19.80;61.26;100340.69;4974521;28;20058;-61
2022/07/30 00:33:43;;;;;;;5.00;3.80;;;;;;;19.72;61.63;100338.94;4974517;28;20508;-60
2022/07/30 00:36:11;;;;;;;5.57;3.72;;;;;;;19.63;61.80;100342.00;4985709;28;20054;-61
2022/07/30 00:38:40;;;;;;;4.40;3.67;;;;;;;19.58;62.13;100335.84;4993602;28;20486;-61
2022/07/30 00:41:09;;;;;;;7.15;3.70;;;;;;;19.53;62.22;100333.34;4993827;28;20046;-61
2022/07/30 00:43:37;;;;;;;5.13;3.63;;;;;;;19.46;62.33;100337.72;4993734;28;20414;-60
2022/07/30 00:46:04;;;;;;;5.85;4.10;;;;;;;19.37;62.26;100342.78;4990219;28;20046;-60
2022/07/30 00:48:32;;;;;;;6.55;4.35;;;;;;;19.31;62.56;100337.84;4993451;28;20054;-61
2022/07/30 00:50:59;;;;;;;5.18;3.88;;;;;;;19.25;62.58;100334.50;4993693;28;20054;-61
2022/07/30 00:53:28;;;;;;;6.97;3.78;;;;;;;19.19;62.43;100331.19;4990973;28;20230;-61
2022/07/30 00:55:56;;;;;;;4.53;3.58;;;;;;;19.14;62.65;100341.97;4991952;28;20502;-61
2022/07/30 00:58:24;;;;;;;4.53;3.97;;;;;;;19.05;62.83;100340.22;4993474;28;20109;-61
2022/07/30 01:00:52;;;;;;;5.65;3.95;;;;;;;18.99;62.70;100338.88;4993302;28;20054;-60
2022/07/30 01:03:19;;;;;;;6.05;3.88;;;;;;;18.92;63.11;100341.59;4991036;28;20053;-61
2022/07/30 01:05:47;;;;;;;4.60;4.15;;;;;;;18.84;63.50;100339.81;4992726;28;20198;-62
2022/07/30 01:08:14;;;;;;;5.63;3.80;;;;;;;18.79;63.30;100338.13;4993450;28;20404;-60
2022/07/30 01:10:42;;;;;;;6.30;3.70;;;;;;;18.70;63.83;100333.88;4991525;28;20065;-60
2022/07/30 01:13:12;;;;;;;7.07;4.28;;;;;;;18.69;63.70;100340.69;4993464;28;20415;-61
2022/07/30 01:15:41;;;;;;;5.93;3.80;;;;;;;18.66;63.69;100345.88;4989709;28;20057;-61
2022/07/30 01:18:12;;;;;;;6.13;4.10;;;;;;;18.58;64.06;100332.84;4993105;28;20058;-60
2022/07/30 01:20:49;;;;;;;5.80;3.80;;;;;;;18.54;64.07;100334.78;4993280;28;20121;-60
2022/07/30 01:23:26;;;;;;;7.18;3.80;;;;;;;18.47;64.64;100340.25;4993005;28;20058;-60
2022/07/30 01:26:04;;;;;;;5.47;4.00;;;;;;;18.40;64.68;100337.31;4989800;28;20050;-60
2022/07/30 01:28:38;;;;;;;5.47;4.05;;;;;;;18.36;64.61;100336.41;4992611;28;20054;-60
2022/07/30 01:31:07;;;;;;;5.65;4.22;;;;;;;18.35;64.61;100340.41;4973759;28;20510;-62
2022/07/30 01:33:40;;;;;;;4.82;4.32;;;;;;;18.32;64.59;100335.53;4973856;28;20050;-60
2022/07/30 01:36:12;;;;;;;7.00;4.60;;;;;;;18.24;64.73;100334.53;4956391;28;20058;-60
2022/07/30 01:38:45;;;;;;;8.25;5.03;;;;;;;18.14;65.10;100333.13;4954119;29;20051;-61
2022/07/30 01:41:32;;;;;;;5.32;4.50;;;;;;;18.07;65.15;100329.34;4954297;29;20059;-61
2022/07/30 01:44:08;;;;;;;5.82;4.20;;;;;;;18.04;65.30;100342.97;4953974;29;20062;-62
2022/07/30 01:46:37;;;;;;;7.22;4.50;;;;;;;17.98;65.56;100341.63;4965339;28;20059;-62
2022/07/30 01:49:07;;;;;;;6.55;4.70;;;;;;;17.91;65.62;100341.50;4963470;28;20058;-62
2022/07/30 01:51:43;;;;;;;7.57;4.18;;;;;;;17.89;65.59;100340.19;4973623;28;20058;-62
2022/07/30 01:54:14;;;;;;;6.47;4.43;;;;;;;17.84;65.82;100339.28;4973337;28;20051;-62
2022/07/30 01:56:45;;;;;;;7.57;4.68;;;;;;;17.81;65.93;100330.75;4969738;28;20441;-61
2022/07/30 01:59:18;;;;;;;5.38;3.83;;;;;;;17.81;65.83;100337.19;4973075;28;20409;-60
2022/07/30 02:01:47;;;;;;;5.78;4.15;;;;;;;17.79;65.87;100335.94;4973212;28;20054;-61
2022/07/30 02:04:14;;;;;;;7.03;3.85;;;;;;;17.76;65.91;100343.09;4973157;28;20058;-60
2022/07/30 02:06:46;;;;;;;6.25;4.47;;;;;;;17.68;66.20;100343.31;4970356;28;20062;-60
2022/07/30 02:09:18;;;;;;;7.10;4.80;;;;;;;17.62;66.48;100348.41;4973092;28;20062;-60
2022/07/30 02:14:39;;;;;;;5.35;4.40;;;;;;;17.56;66.56;100347.06;4978363;28;20062;-60
2022/07/30 02:17:08;;;;;;;6.22;4.78;;;;;;;17.50;66.83;100346.50;4969500;28;20128;-60
2022/07/30 02:19:41;;;;;;;7.88;4.90;;;;;;;17.47;66.74;100350.06;4973345;28;20475;-60
2022/07/30 02:22:14;;;;;;;5.22;4.05;;;;;;;17.42;67.11;100353.94;4973231;28;20055;-60
2022/07/30 02:24:43;;;;;;;6.68;4.70;;;;;;;17.40;67.03;100356.31;4972867;28;20062;-60
2022/07/30 02:27:16;;;;;;;6.73;4.40;;;;;;;17.38;67.07;100349.41;4969705;28;20507;-60
2022/07/30 02:29:45;;;;;;;4.97;4.20;;;;;;;17.36;66.98;100354.59;4981835;28;20073;-60
2022/07/30 02:32:17;;;;;;;6.53;4.35;;;;;;;17.31;67.01;100355.69;4992761;28;20494;-60
2022/07/30 02:34:48;;;;;;;5.82;4.28;;;;;;;17.22;67.35;100353.06;4992511;28;20046;-60
2022/07/30 02:37:19;;;;;;;5.00;4.10;;;;;;;17.19;67.59;100352.97;4986402;28;20058;-60
2022/07/30 02:39:47;;;;;;;6.95;4.30;;;;;;;17.20;67.24;100360.25;4993187;28;20054;-60
2022/07/30 02:42:17;;;;;;;5.60;4.05;;;;;;;17.19;66.95;100355.78;4995808;28;20054;-60
2022/07/30 02:44:48;;;;;;;5.38;4.32;;;;;;;17.02;67.80;100360.56;4995985;28;20054;-60
2022/07/30 02:47:16;;;;;;;6.53;4.72;;;;;;;17.04;67.80;100361.03;4991911;28;20053;-60
2022/07/30 02:49:46;;;;;;;7.18;4.25;;;;;;;17.08;67.61;100371.56;4994302;28;20058;-60
2022/07/30 02:52:15;;;;;;;7.25;5.05;;;;;;;17.10;67.53;100357.97;4995700;28;20080;-60
2022/07/30 02:54:43;;;;;;;6.35;4.70;;;;;;;17.07;67.43;100361.47;4995870;28;20047;-60
2022/07/30 02:57:12;;;;;;;7.43;4.53;;;;;;;16.99;67.71;100366.94;4993034;28;20053;-64
2022/07/30 02:59:43;;;;;;;8.27;5.00;;;;;;;17.00;67.62;100357.28;4992779;28;20418;-60
2022/07/30 03:02:13;;;;;;;5.10;4.40;;;;;;;17.00;67.55;100362.91;4995491;28;20061;-60
2022/07/30 03:04:40;;;;;;;;;;;;;;;16.96;67.62;100358.38;4996039;28;20050;-61
2022/07/30 03:07:09;;;;;;;9.80;4.72;;;;;;;16.90;67.84;100360.63;4994937;28;19937;-61
2022/07/30 03:09:38;;;;;;;6.90;5.03;;;;;;;16.87;67.89;100369.81;4993147;28;20054;-61
2022/07/30 03:12:08;;;;;;;11.95;5.13;;;;;;;16.85;67.92;100369.34;4995327;28;20055;-60
2022/07/30 03:14:35;;;;;;;6.60;5.47;;;;;;;16.79;68.36;100371.56;4995253;28;20057;-60
2022/07/30 03:17:07;;;;;;;6.20;4.82;;;;;;;16.81;68.42;100371.25;4995467;28;20057;-60
2022/07/30 03:19:38;;;;;;;7.40;5.32;;;;;;;16.78;68.51;100367.13;4990537;28;20057;-60
2022/07/30 03:22:08;;;;;;;5.75;5.15;;;;;;;16.77;68.79;100365.47;4990149;28;20050;-61
2022/07/30 03:24:38;;;;;;;6.95;4.95;;;;;;;16.75;68.39;100361.38;4995386;28;20047;-60
2022/07/30 03:27:06;;;;;;;6.20;4.75;;;;;;;16.71;68.50;100361.28;4995005;28;20058;-60
2022/07/30 03:29:35;;;;;;;6.47;5.05;;;;;;;16.68;68.73;100372.44;4988265;28;20054;-60
2022/07/30 03:32:06;;;;;;;8.10;4.97;;;;;;;16.70;68.39;100375.72;4993816;28;20054;-60
2022/07/30 03:34:34;;;;;;;5.70;4.60;;;;;;;16.62;68.16;100372.69;4995268;28;20057;-61
2022/07/30 03:37:05;;;;;;;6.22;5.00;;;;;;;16.56;68.29;100371.31;4994855;28;20062;-61
2022/07/30 03:39:33;;;;;;;5.82;4.68;;;;;;;16.53;68.54;100360.78;4992587;28;20061;-61
2022/07/30 03:42:01;;;;;;;10.30;5.43;;;;;;;16.49;68.76;100371.13;4994590;28;20058;-61
2022/07/30 03:44:32;;;;;;;8.00;6.10;;;;;;;16.43;69.16;100375.34;4994973;28;20058;-60
2022/07/30 03:47:00;;;;;;;7.22;5.07;;;;;;;16.41;69.26;100369.28;4992199;28;20061;-60
2022/07/30 03:49:29;;;;;;;8.63;5.75;;;;;;;16.41;69.44;100372.06;4994906;28;20419;-60
2022/07/30 03:51:57;;;;;;;8.67;6.07;;;;;;;16.22;70.32;100370.72;4993967;28;20054;-59
2022/07/30 03:54:25;;;;;;;8.05;6.32;;;;;;;16.29;70.03;100372.91;4994483;28;20065;-60
2022/07/30 03:56:53;;;;;;;7.63;5.60;;;;;;;16.33;69.89;100364.59;4993168;28;20058;-61
2022/07/30 03:59:20;;;;;;;7.57;5.28;;;;;;;16.39;69.33;100371.63;4993784;28;20480;-61
2022/07/30 04:01:47;;;;;;;6.38;4.95;;;;;;;16.38;68.89;100368.00;4994453;28;20514;-61
2022/07/30 04:04:14;;;;;;;6.65;4.88;;;;;;;16.35;68.92;100376.31;4994290;28;20706;-61
2022/07/30 04:06:46;;;;;;;6.03;5.18;;;;;;;16.33;69.27;100378.66;4994405;28;20054;-61
2022/07/30 04:09:13;;;;;;;6.53;4.53;;;;;;;16.33;69.27;100381.47;4990314;28;20057;-61
2022/07/30 04:11:42;;;;;;;6.78;5.95;;;;;;;16.32;69.38;100389.09;4994293;28;20069;-61
2022/07/30 04:14:10;;;;;;;9.40;5.75;;;;;;;16.32;69.40;100391.91;4994057;28;20061;-61
2022/07/30 04:16:43;;;;;;;6.40;5.10;;;;;;;16.33;69.29;100392.72;4994488;28;20058;-61
2022/07/30 04:19:16;;;;;;;6.05;5.28;;;;;;;16.31;69.46;100387.44;4989818;28;20602;-61
2022/07/30 04:21:49;;;;;;;6.35;5.57;;;;;;;16.34;69.19;100397.19;4994479;28;20058;-61
2022/07/30 04:24:18;;;;;;;6.13;5.18;;;;;;;16.33;69.52;100401.97;4993965;28;20050;-61
2022/07/30 04:26:46;;;;;;;;;;;;;;;16.31;69.54;100403.50;4994457;28;20065;-61
2022/07/30 04:29:13;;;;;;;6.78;5.10;;;;;;;16.32;69.57;100399.53;4986442;28;19921;-61
2022/07/30 04:31:41;;;;;;;8.40;6.20;;;;;;;16.31;69.79;100409.94;4990987;28;20062;-61
2022/07/30 04:34:13;;;;;;;6.90;5.75;;;;;;;16.35;69.78;100416.47;4993762;28;20087;-61
2022/07/30 04:36:44;;;;;;;8.48;5.78;;;;;;;16.38;69.71;100415.78;4993876;28;20517;-62
2022/07/30 04:39:13;;;;;;;8.18;5.85;;;;;;;16.38;69.81;100424.22;4992157;28;20055;-61
2022/07/30 04:41:40;;;;;;;7.78;5.93;;;;;;;16.40;69.97;100421.88;4993672;28;20062;-61
2022/07/30 04:44:08;;;;;;;6.53;5.57;;;;;;;16.43;69.73;100428.78;4993491;28;20054;-61
2022/07/30 04:46:35;;;;;;;8.32;6.35;;;;;;;16.50;69.26;100428.97;4991086;28;20050;-62
2022/07/30 04:49:03;;;;;;;7.20;5.85;;;;;;;16.54;69.25;100417.84;4993561;28;20069;-61
2022/07/30 04:51:34;;;;;;;7.90;6.07;;;;;;;16.63;69.26;100424.13;4993481;28;20058;-61
2022/07/30 04:54:02;;;;;;;7.75;6.60;;;;;;;16.65;69.25;100424.59;4993193;28;20506;-61
2022/07/30 04:56:35;;;;;;;7.37;6.10;;;;;;;16.73;69.17;100420.81;4989871;28;20434;-61
2022/07/30 04:59:03;;;;;;;10.50;7.75;;;;;;;16.82;68.80;100431.97;4991747;28;20054;-61
2022/07/30 05:01:34;;;;;;;8.32;6.95;;;;;;;16.88;68.73;100438.94;4993264;28;20058;-61
2022/07/30 05:04:03;;;;;;;9.60;6.93;;;;;;;16.94;68.87;100440.31;4993035;28;20058;-61
2022/07/30 05:06:34;;;;;;;10.70;7.32;;;;;;;17.02;68.61;100435.72;4991581;28;20081;-61
2022/07/30 05:09:01;;;;;;;7.18;6.22;;;;;;;17.08;68.42;100448.38;4987839;28;20076;-61
2022/07/30 05:11:29;;;;;;;8.68;6.10;;;;;;;17.12;68.08;100443.66;4993064;28;20518;-62
2022/07/30 05:13:58;;;;;;;7.32;6.05;;;;;;;17.21;67.96;100452.75;4992986;28;20442;-62
2022/07/30 05:16:25;;;;;;;8.35;6.60;;;;;;;17.27;67.71;100455.31;4993043;28;20050;-61
2022/07/30 05:18:55;;;;;;;8.32;5.85;;;;;;;17.37;67.70;100460.41;4988305;28;20054;-61
2022/07/30 05:21:22;;;;;;;;;;;;;;;17.38;67.55;100459.22;4993394;28;20065;-61
2022/07/30 05:23:49;;;;;;;7.72;5.82;;;;;;;17.52;67.07;100458.81;4992950;28;19929;-61
2022/07/30 05:26:21;;;;;;;7.88;6.00;;;;;;;17.58;66.86;100463.00;4992900;28;20054;-62
2022/07/30 05:28:48;;;;;;;7.03;5.97;;;;;;;17.73;66.84;100458.53;4989597;28;20081;-62
2022/07/30 05:31:18;;;;;;;6.80;5.70;;;;;;;17.83;66.65;100461.66;4992677;28;20054;-61
2022/07/30 05:33:45;;;;;;;;;;;;;;;17.93;66.54;100459.44;4992531;28;20053;-61
2022/07/30 05:36:12;;;;;;;8.57;5.70;;;;;;;18.11;66.12;100468.34;4992553;28;20302;-62
2022/07/30 05:38:39;;;;;;;7.65;5.82;;;;;;;18.25;65.69;100472.34;4990232;28;20491;-61
2022/07/30 05:41:10;;;;;;;8.93;6.70;;;;;;;18.30;65.79;100476.06;4992831;28;20065;-62
2022/07/30 05:43:37;;;;;;;9.20;7.75;;;;;;;18.46;65.53;100471.19;4992645;28;20514;-62
2022/07/30 05:46:04;;;;;;;10.38;8.02;;;;;;;18.59;65.40;100475.53;4989889;28;20054;-62
2022/07/30 05:48:36;;;;;;;9.35;7.50;;;;;;;18.67;65.37;100482.16;4991316;28;20055;-62
2022/07/30 05:51:03;;;;;;;12.45;9.00;;;;;;;18.82;65.01;100477.66;4981924;28;20399;-61
2022/07/30 05:53:31;;;;;;;11.77;9.70;;;;;;;18.88;64.93;100479.00;4991188;28;20050;-61
2022/07/30 05:55:59;;;;;;;11.27;9.75;;;;;;;18.85;65.41;100474.09;4988162;28;20507;-59
2022/07/30 05:58:26;;;;;;;11.77;7.25;;;;;;;18.82;66.51;100472.81;4975437;28;20061;-58
2022/07/30 06:00:53;;;;;;;15.48;8.90;;;;;;;18.72;66.71;100469.75;4987871;28;20047;-59
2022/07/30 06:03:20;;;;;;;12.40;10.23;;;;;;;18.82;66.16;100469.19;4992257;28;20061;-59
2022/07/30 06:05:49;;;;;;;10.30;8.88;;;;;;;18.78;66.69;100468.25;4990768;28;20406;-58
2022/07/30 06:08:19;;;;;;;13.00;9.20;;;;;;;18.82;66.60;100464.34;4988493;28;20050;-59
2022/07/30 06:10:46;;;;;;;9.95;8.95;;;;;;;19.12;65.79;100474.22;4991469;28;20489;-59
2022/07/30 06:13:14;;;;;;;11.77;10.57;;;;;;;18.95;65.96;100473.50;4991276;28;20055;-59
2022/07/30 06:15:41;;;;;;;11.95;10.70;;;;;;;18.98;66.19;100474.75;4994046;28;20411;-59
2022/07/30 06:18:08;;;;;;;11.68;10.48;;;;;;;19.17;65.84;100471.09;4991993;28;20426;-58
2022/07/30 06:20:36;;;;;;;13.85;8.80;;;;;;;19.32;65.30;100467.38;4994180;28;20422;-59
2022/07/30 06:23:04;;;;;;;11.02;9.23;;;;;;;19.46;65.08;100467.66;4996112;28;20058;-60
2022/07/30 06:25:32;;;;;;;13.00;10.45;;;;;;;19.42;65.10;100471.59;4995581;28;20057;-60
2022/07/30 06:27:59;;;;;;;12.77;10.38;;;;;;;19.54;64.93;100468.59;4993398;28;20050;-59
2022/07/30 06:30:27;;;;;;;11.13;9.75;;;;;;;19.66;64.61;100470.41;4995048;28;20054;-58
2022/07/30 06:32:55;;;;;;;13.25;11.05;;;;;;;19.65;64.48;100475.25;4994676;28;20050;-58
2022/07/30 06:35:22;;;;;;;11.85;9.40;;;;;;;19.90;64.01;100469.22;4995326;28;20062;-58
2022/07/30 06:37:50;;;;;;;12.07;9.65;;;;;;;19.83;63.78;100469.13;4994285;28;20149;-58
2022/07/30 06:40:18;;;;;;;12.57;9.48;;;;;;;19.78;63.99;100461.78;4994129;28;20387;-59
2022/07/30 06:42:46;;;;;;;12.50;10.90;;;;;;;19.80;64.46;100473.53;4995512;28;20059;-59
2022/07/30 06:45:13;;;;;;;10.70;9.60;;;;;;;20.00;63.72;100473.44;4993148;28;20065;-59
2022/07/30 06:47:40;;;;;;;15.48;10.95;;;;;;;19.85;63.97;100484.50;4990255;28;20050;-57
2022/07/30 06:50:09;;;;;;;14.57;10.80;;;;;;;20.03;64.02;100475.50;4994857;28;20050;-59
2022/07/30 06:52:36;;;;;;;15.43;11.65;;;;;;;20.16;63.79;100465.63;4992217;28;20051;-58
2022/07/30 06:55:04;;;;;;;11.73;10.32;;;;;;;20.21;63.45;100479.44;4995652;28;20054;-59
2022/07/30 06:57:33;;;;;;;18.08;11.65;;;;;;;20.21;63.73;100476.59;4991513;28;20046;-59
2022/07/30 07:00:00;;;;;;;13.32;10.85;;;;;;;20.12;64.02;100473.25;4995462;28;20055;-59
2022/07/30 07:02:28;;;;;;;13.13;11.00;;;;;;;20.01;64.23;100481.56;4994140;28;20059;-58
2022/07/30 07:04:55;;;;;;;12.27;10.98;;;;;;;19.95;64.71;100476.56;4992240;28;20054;-56
2022/07/30 07:07:22;;;;;;;12.82;10.05;;;;;;;20.31;63.70;100468.69;4992107;28;20055;-57
2022/07/30 07:09:50;;;;;;;12.15;10.18;;;;;;;20.64;62.56;100471.63;4994652;28;20050;-59
2022/07/30 07:12:19;;;;;;;12.88;10.48;;;;;;;20.57;62.94;100482.78;4990867;28;20058;-59
2022/07/30 07:14:48;;;;;;;13.82;10.70;;;;;;;20.82;62.36;100477.50;4993975;28;20054;-59
2022/07/30 07:17:16;;;;;;;14.13;10.32;;;;;;;21.25;61.05;100480.88;4991759;28;20069;-59
2022/07/30 07:19:44;;;;;;;10.83;8.97;;;;;;;21.46;60.62;100480.34;4993854;28;20438;-59
2022/07/30 07:22:11;;;;;;;16.38;11.98;;;;;;;21.49;59.93;100473.88;4994369;28;20385;-60
2022/07/30 07:24:38;;;;;;;14.68;11.13;;;;;;;21.59;60.31;100477.22;4993207;28;20410;-59
2022/07/30 07:27:08;;;;;;;13.07;11.32;;;;;;;21.69;59.62;100482.16;4991247;28;20057;-60
2022/07/30 07:29:35;;;;;;;14.23;9.63;;;;;;;21.67;59.80;100484.56;4993257;28;20058;-60
2022/07/30 07:32:04;;;;;;;15.40;11.55;;;;;;;22.10;58.77;100479.28;4991913;28;20051;-60
2022/07/30 07:34:32;;;;;;;12.82;9.90;;;;;;;22.28;58.44;100476.63;4993245;28;20468;-61
2022/07/30 07:37:00;;;;;;;16.17;12.32;;;;;;;22.53;57.59;100475.97;4991826;28;20415;-61
2022/07/30 07:39:27;;;;;;;16.48;11.65;;;;;;;22.90;56.68;100487.09;4991461;28;20407;-61
2022/07/30 07:41:55;;;;;;;12.60;9.80;;;;;;;23.61;55.32;100483.72;4994016;28;20054;-61
2022/07/30 07:44:22;;;;;;;15.50;10.45;;;;;;;24.45;52.91;100485.38;4992743;28;20054;-61
2022/07/30 07:46:49;;;;;;;13.63;10.60;;;;;;;24.98;50.93;100467.31;4990545;28;20059;-61
2022/07/30 07:49:18;;;;;;;15.95;11.35;;;;;;;25.38;50.24;100476.53;4990574;28;20058;-61
2022/07/30 07:51:45;;;;;;;13.90;9.38;;;;;;;26.21;48.16;100473.91;4993510;28;20079;-61
2022/07/30 07:54:12;;;;;;;15.75;9.57;;;;;;;26.77;45.87;100472.94;4993151;28;20495;-61
2022/07/30 07:56:40;;;;;;;13.40;9.00;;;;;;;27.50;44.33;100472.41;4992505;28;20050;-61
2022/07/30 07:59:07;;;;;;;13.43;9.00;;;;;;;28.10;42.96;100474.78;4988038;28;20050;-61
2022/07/30 08:01:34;;;;;;;11.23;9.23;;;;;;;28.94;41.50;100485.06;4994195;28;20062;-62
2022/07/30 08:04:02;;;;;;;18.50;12.52;;;;;;;29.47;39.37;100473.72;4991875;28;20057;-62
2022/07/30 08:06:31;;;;;;;12.00;10.18;;;;;;;30.37;38.84;100479.38;4991103;28;20055;-62
2022/07/30 08:09:00;;;;;;;17.20;13.05;;;;;;;30.95;36.87;100479.38;4990222;28;20518;-62
2022/07/30 08:11:27;;;;;;;15.32;10.93;;;;;;;31.56;35.74;100477.56;4990973;28;20430;-61
2022/07/30 08:13:54;;;;;;;13.27;10.85;;;;;;;32.33;34.59;100478.31;4993140;28;20054;-61
2022/07/30 08:16:22;;;;;;;16.08;12.60;;;;;;;32.94;33.59;100481.09;4992015;28;20046;-61
2022/07/30 08:18:50;;;;;;;16.98;11.57;;;;;;;33.73;32.63;100480.97;4992859;28;20054;-62
2022/07/30 08:21:17;;;;;;;15.00;12.52;;;;;;;34.42;30.34;100478.91;4988145;28;20467;-62
2022/07/30 08:23:46;;;;;;;13.32;11.25;;;;;;;35.01;29.30;100485.34;4992415;28;20069;-62
2022/07/30 08:26:13;;;;;;;17.98;12.07;;;;;;;35.65;28.46;100475.72;4993078;28;20066;-62
2022/07/30 08:28:41;;;;;;;13.82;12.43;;;;;;;36.09;28.00;100483.06;4993622;28;20061;-62
2022/07/30 08:31:09;;;;;;;;;;;;;;;36.48;27.46;100481.06;4991258;28;20415;-62
2022/07/30 08:33:36;;;;;;;13.93;12.52;;;;;;;36.93;26.55;100482.00;4990636;28;19925;-62
2022/07/30 08:36:03;;;;;;;13.60;12.30;;;;;;;37.27;26.39;100487.66;4992573;28;20054;-62
2022/07/30 08:38:31;;;;;;;16.83;14.70;;;;;;;36.81;26.18;100479.38;4993272;28;20062;-62
2022/07/30 08:41:00;;;;;;;17.48;13.98;;;;;;;37.25;26.52;100491.03;4992214;28;20046;-63
2022/07/30 08:43:29;;;;;;;16.42;14.85;;;;;;;37.35;25.86;100480.13;4990171;28;20054;-63
2022/07/30 08:46:00;;;;;;;15.65;14.15;;;;;;;37.92;25.53;100478.97;4990907;28;20058;-63
2022/07/30 08:48:29;;;;;;;17.27;15.48;;;;;;;37.39;25.28;100483.63;4992668;28;20419;-64
2022/07/30 08:50:56;;;;;;;17.05;15.13;;;;;;;38.11;24.73;100479.53;4992288;28;20058;-65
2022/07/30 08:53:26;;;;;;;17.50;15.75;;;;;;;38.46;24.42;100484.50;4990456;28;20437;-64
2022/07/30 08:55:53;;;;;;;19.20;16.08;;;;;;;39.14;23.94;100483.19;4991119;28;20051;-65
2022/07/30 08:58:28;;;;;;;16.70;15.05;;;;;;;39.39;23.16;100476.53;4993456;28;20057;-65
2022/07/30 09:00:55;;;;;;;18.17;16.38;;;;;;;39.31;22.78;100492.91;4991926;28;20058;-63
2022/07/30 09:03:23;;;;;;;20.13;17.92;;;;;;;39.93;22.23;100490.53;4990011;28;20514;-64
2022/07/30 09:05:54;;;;;;;19.65;16.73;;;;;;;40.20;22.12;100493.34;4991919;28;20046;-64
2022/07/30 09:08:21;;;;;;;17.13;15.40;;;;;;;39.57;21.62;100500.84;4992988;28;20061;-64
2022/07/30 09:10:49;;;;;;;14.40;12.93;;;;;;;39.95;20.20;100499.56;4992035;28;20403;-64
2022/07/30 09:13:28;;;;;;;14.20;12.80;;;;;;;40.50;20.84;100502.53;4988655;28;20058;-64
2022/07/30 09:15:56;;;;;;;15.55;13.45;;;;;;;40.62;20.59;100495.41;4978215;28;20065;-64
2022/07/30 09:18:28;;;;;;;16.15;14.55;;;;;;;41.82;19.54;100489.25;4992203;28;20061;-64
2022/07/30 09:20:55;;;;;;;13.57;12.27;;;;;;;42.28;19.06;100495.81;4991587;28;20534;-64
2022/07/30 09:23:23;;;;;;;15.15;12.98;;;;;;;42.78;18.64;100489.75;4990503;28;20065;-64
2022/07/30 09:25:51;;;;;;;14.10;12.77;;;;;;;43.32;18.09;100494.22;4988694;28;20054;-64
2022/07/30 09:28:30;;;;;;;13.25;11.40;;;;;;;44.00;17.46;100496.59;4990393;28;20460;-64
2022/07/30 09:30:57;;;;;;;11.77;10.63;;;;;;;44.12;16.55;100498.09;4988199;28;20546;-64
2022/07/30 09:33:35;;;;;;;;;;;;;;;43.56;17.21;100505.25;4990381;28;20062;-64
2022/07/30 09:36:04;;;;;;;12.93;10.82;;;;;;;44.09;16.26;100498.38;4989205;28;19921;-64
2022/07/30 09:38:43;;;;;;;10.70;9.50;;;;;;;44.36;16.00;100494.31;4987624;28;20073;-64
2022/07/30 09:41:11;;;;;;;12.20;10.30;;;;;;;45.07;15.04;100507.03;4990984;28;20050;-63
2022/07/30 09:43:44;;;;;;;11.10;9.02;;;;;;;45.26;15.23;100497.44;4988140;28;20054;-64
2022/07/30 09:46:12;;;;;;;12.18;10.98;;;;;;;45.02;14.64;100496.13;4986220;28;20046;-64
2022/07/30 09:48:39;;;;;;;;;;;;;;;45.00;15.22;100495.91;4990363;28;20055;-64
2022/07/30 09:51:07;;;;;;;11.30;10.13;;;;;;;45.30;15.29;100494.94;4990474;28;20318;-64
2022/07/30 09:53:34;;;;;;;12.25;9.90;;;;;;;45.74;14.36;100489.66;4991539;28;20392;-64
2022/07/30 09:56:22;;;;;;;11.52;10.38;;;;;;;45.98;14.56;100497.50;4984282;28;20050;-64
2022/07/30 09:58:50;;;;;;;15.90;12.85;;;;;;;45.93;13.99;100499.22;4985059;28;20065;-64
2022/07/30 10:01:18;;;;;;;18.83;13.25;;;;;;;46.11;14.38;100494.59;4991478;28;20055;-64
2022/07/30 10:03:45;;;;;;;;;;;;;;;45.38;14.49;100489.97;4993006;28;20061;-64
2022/07/30 10:06:12;;;;;;;17.38;15.45;;;;;;;44.94;14.21;100504.00;4989623;28;19921;-64
2022/07/30 10:08:42;;;;;;;17.67;14.07;;;;;;;44.40;15.10;100499.09;4987573;28;20047;-64
2022/07/30 10:11:12;;;;;;;17.90;14.23;;;;;;;44.90;14.69;100501.41;4984466;28;20064;-64
2022/07/30 10:13:40;;;;;;;18.52;15.07;;;;;;;44.87;14.83;100507.59;4985109;28;20051;-67
2022/07/30 10:16:09;;;;;;;16.63;12.98;;;;;;;45.54;14.05;100497.72;4990087;28;20058;-64
2022/07/30 10:18:37;;;;;;;17.83;14.77;;;;;;;46.03;13.43;100498.78;4990114;28;20055;-64
2022/07/30 10:21:05;;;;;;;;;;;;;;;46.77;12.63;100499.69;4988688;28;20047;-64
2022/07/30 10:23:34;;;;;;;16.27;13.43;;;;;;;46.53;13.13;100496.97;4992296;28;19952;-64
2022/07/30 10:26:03;;;;;;;17.52;14.32;;;;;;;46.77;13.15;100496.72;4992312;28;20054;-64
2022/07/30 10:28:31;;;;;;;17.33;14.30;;;;;;;46.61;13.37;100502.97;4991945;28;20436;-64
2022/07/30 10:31:00;;;;;;;17.23;14.30;;;;;;;46.69;12.83;100500.94;4989279;28;20117;-64
2022/07/30 10:33:30;;;;;;;17.58;15.75;;;;;;;46.84;13.25;100498.19;4990794;28;20530;-63
2022/07/30 10:35:58;;;;;;;16.88;15.07;;;;;;;47.21;13.29;100499.22;4992214;28;20066;-63
2022/07/30 10:38:31;;;;;;;17.25;13.60;;;;;;;47.28;12.71;100500.66;4991827;28;20061;-63
2022/07/30 10:41:04;;;;;;;17.13;13.15;;;;;;;46.85;13.13;100501.91;4990521;28;20153;-63
2022/07/30 10:43:55;;;;;;;18.38;14.60;;;;;;;47.33;12.55;100506.41;4990657;28;20054;-63
2022/07/30 10:46:34;;;;;;;16.05;13.80;;;;;;;47.09;13.07;100504.56;4991816;28;20062;-63
2022/07/30 10:49:14;;;;;;;15.40;13.63;;;;;;;46.87;13.01;100508.81;4992103;28;20057;-63
2022/07/30 10:51:46;;;;;;;14.98;12.20;;;;;;;46.64;13.01;100495.94;4989538;28;20450;-63
2022/07/30 10:54:43;;;;;;;15.45;13.77;;;;;;;46.40;13.24;100500.72;4990374;28;20066;-63
2022/07/30 10:57:12;;;;;;;12.95;11.07;;;;;;;46.76;13.19;100500.22;4991821;28;20065;-63
2022/07/30 11:00:08;;;;;;;17.58;11.43;;;;;;;45.84;13.46;100496.69;4991843;28;20050;-63
2022/07/30 11:02:37;;;;;;;12.32;10.38;;;;;;;46.02;13.44;100503.88;4992757;28;20051;-63
2022/07/30 11:05:27;;;;;;;9.05;7.65;;;;;;;46.18;12.43;100499.81;4995397;28;20054;-62
2022/07/30 11:07:55;;;;;;;11.02;8.23;;;;;;;45.23;13.79;100496.34;4995461;28;20051;-63
2022/07/30 11:10:36;;;;;;;10.10;7.72;;;;;;;45.20;14.10;100496.69;4994892;28;20050;-63
2022/07/30 11:13:04;;;;;;;9.32;7.47;;;;;;;45.50;13.40;100500.22;4989719;28;20047;-63
2022/07/30 11:15:52;;;;;;;8.20;7.30;;;;;;;45.78;13.38;100490.09;4993603;28;20487;-63
2022/07/30 11:18:21;;;;;;;9.63;8.63;;;;;;;45.22;13.76;100505.75;4995024;28;20113;-63
2022/07/30 11:21:19;;;;;;;9.77;8.60;;;;;;;43.64;15.26;100505.44;4994146;28;20145;-63
2022/07/30 11:23:47;;;;;;;10.52;9.10;;;;;;;44.52;14.24;100494.69;4983239;28;20060;-63
2022/07/30 11:26:48;;;;;;;11.20;8.75;;;;;;;44.07;14.65;100492.28;4994814;28;20061;-63
2022/07/30 11:29:38;;;;;;;8.60;7.50;;;;;;;45.28;13.77;100483.75;4994451;28;20057;-63
2022/07/30 11:32:26;;;;;;;8.25;7.45;;;;;;;44.86;13.80;100477.41;4994519;28;20057;-63
2022/07/30 11:35:12;;;;;;;8.50;7.10;;;;;;;45.35;13.95;100482.28;4992170;28;20077;-63
2022/07/30 11:38:05;;;;;;;7.13;6.03;;;;;;;45.03;13.83;100483.03;4994452;28;20050;-63